Avella, Pennsylvania
Current Conditions -  °F | °C
As of 8:53 PM on Monday 24 Nov 2014 (Local Time) from KHLG Reporting Station
Clear Clear  
Wind Chill: 36°   Ceiling: Unl
Heat Index: 44°   Visibility: 10mi
Dew Point: 34°   Wind: 17mph
Humidity: 68%   Direction: 260°W
Pressure: 29.8"   Gusts: 26mph
Location:  40.28°N, 80.46°W
Report Text: KHLG 250153Z 26015G23KT 10SM CLR 07/01 A2980 RMK AO2 SLP094 T00670011
Loading
Personal Weather Stations






























Interactive Weather Map New forecast layout! Learn more

10-Day Weather Forecast

Advertisements
Track Severe Weather on mobile